ブラジリア の空港の天気 - METARとTAF

ブラジリア国際空港 ( SBBR / BSB ) - ブラジル ブラジリア
飛行場実況気象(Metar)
観測時間02/17 11:00 BRT (02/17 14:00 UTC)
風向・風速北北西 7m/s
視程10km以上
天気現象
全天の8割程度の雲 雲底高度 400m
気温22℃
湿度83%
気圧1019hPa
METARSBBR 171400Z 33013KT 300V360 9999 BKN013 22/19 Q1019
過去の天気等 Google飛行場航空写真 Wunderground天気予報

過去48時間のMETAR

飛行場予報(TAF)
発表時間: 2/17 05:00 BRT (2/17 08:00 UTC)
予報対象時間: 17日9時 BRT ~ 18日9時 BRT
風向・風速西北西 5m/s
視程7000m
全天の4割程度の雲 雲底高度 910m
17日9時 BRT から 確率 30% で
天気現象
全天の8割程度の雲 雲底高度 370m
少しの積乱雲 雲底高度 1070m
17日15時 BRT ~ 17日17時 BRT に徐々に
風向・風速西北西 4m/s
全天の4割程度の雲 雲底高度 610m
17日15時 BRT から 確率 30% で
天気現象
全天の8割程度の雲 雲底高度 760m
少しの積乱雲 雲底高度 910m
17日21時 BRT ~ 17日23時 BRT に徐々に
風向・風速北北西 3m/s
少しの雲 雲底高度 910m
18日3時 BRT ~ 18日5時 BRT に徐々に
風向・風速北 3m/s
少しの雲 雲底高度 610m
TAF SBBR 170800Z 1712/1812 29010KT 7000 SCT030 TX29/1718Z TN21/1805Z
PROB30 1712/1718 TS BKN012 FEW035CB
BECMG 1718/1720 29008KT SCT020
PROB30 1718/1723 TS BKN025 FEW030CB
BECMG 1800/1802 34005KT FEW030
BECMG 1806/1808 35005KT FEW020 RMK PDE